Current Conditions
Mostly Scattered
Clouds



Pressure
1007.92 (mb) - 29.76 (inHG)
Visibility

6.2 (mimiles) - 10.0 (km)
   Temperature
24  °C
75°F
12  °C
Dewpoint
47  %
 Humidity
   Wind Speed
4  kts
5  mph
8  km/h
2.2  m/s
   Wind Direction
 60°
East North
East
   Airport Data
EGXU
Location RAF Linton-On-Ouse 25 mi (40.23 km)
Metar :EGXU 261250Z AUTO 06004KT 9999 SCT045/// 24/12 Q1008
Mon 26th July 13:50 pm
   Raw Metar Info
Raw METAR is the most common format in the world for the transmission of observational weather data. It is highly standardized through the International Civil Aviation Organization (ICAO), which allows it to be understood throughout most of the world.
   API Info
Data Provided by
https://www.checkwx.com/weather/EGXU
   © Info
CSS/SVG/PHP scripts were developed by weather34.com for use in the weather34 template © 2015-2021

Guide Info provided by Metar-Wikipedia